Latest Weather Observations for Renmark Airport

IDS60801

Issued at 2:35 pm CDT Wednesday 26 November 2014 (issued every 30 minutes, with the page automatically refreshed every 10 minutes)

About weather observations | Map of weather stations | Latest weather observations for SA | Other Formats
Station Details ID: 024048 Name: RENMARK AERO Lat: -34.20 Lon: 140.68 Height: 31.5 m
Data from the previous 72 hours. | See also: Recent months at Renmark Airport
Date/Time
CDT
Temp
°C
App
Temp
°C
Dew
Point
Rel
Hum
%
Delta-T
°C
Wind Press
QNH
hPa
Press
MSL
hPa
Rain
since 9 am
mm
Dir
 
Spd
km/h
Gust
km/h
Spd
kts
Gust
kts
26/02:30pm 24.0 18.7 1.6 23 10.5 SW 19 32 10 17 1020.7 1020.6 0.0
26/02:00pm 24.4 19.0 2.5 24 10.5 SW 20 30 11 16 1021.1 1021.0 0.0
26/01:30pm 24.7 19.6 3.9 26 10.2 SSW 20 30 11 16 1021.5 1021.4 0.0
26/01:00pm 23.3 18.4 4.3 29 9.4 S 19 24 10 13 1021.9 1021.8 0.0
26/12:30pm 21.9 18.2 4.5 32 8.5 S 13 17 7 9 1022.4 1022.3 0.0
26/12:00pm 21.4 17.0 4.9 34 8.1 S 17 26 9 14 1022.7 1022.6 0.0
26/11:30am 20.4 16.3 4.4 35 7.7 S 15 28 8 15 1023.1 1023.0 0.0
26/11:00am 19.7 15.3 4.6 37 7.3 S 17 32 9 17 1023.3 1023.2 0.0
26/10:30am 19.1 14.3 4.5 38 7.0 S 19 28 10 15 1023.6 1023.5 0.0
26/10:00am 18.5 14.1 4.7 40 6.6 S 17 28 9 15 1023.5 1023.4 0.0
26/09:30am 17.9 13.5 4.8 42 6.2 SSE 17 28 9 15 1023.5 1023.4 0.0
26/09:00am 17.1 12.3 5.4 46 5.6 SSE 20 32 11 17 1023.5 1023.4 0.0
26/08:30am 16.1 11.5 5.7 50 5.0 SSE 19 24 10 13 1023.5 1023.4 0.0
26/08:00am 14.8 10.6 5.6 54 4.4 SSE 17 24 9 13 1023.2 1023.1 0.0
26/07:30am 14.1 9.9 5.7 57 4.0 SSE 17 24 9 13 1023.0 1022.9 0.0
26/07:00am 13.0 9.6 5.9 62 3.4 SSE 13 19 7 10 1022.7 1022.6 0.0
26/06:30am 11.8 8.8 5.9 67 2.7 S 11 17 6 9 1022.3 1022.2 0.0
26/06:00am 10.8 8.2 6.0 72 2.2 S 9 11 5 6 1022.1 1022.0 0.0
26/05:30am 10.9 8.2 5.7 70 2.4 S 9 13 5 7 1021.9 1021.8 0.0
26/05:00am 11.1 8.4 5.6 69 2.5 S 9 13 5 7 1021.7 1021.6 0.0
26/04:30am 11.4 8.3 5.7 68 2.6 S 11 15 6 8 1021.5 1021.4 0.0
26/04:00am 11.9 8.9 5.8 66 2.8 SSE 11 15 6 8 1021.3 1021.2 0.0
26/03:30am 12.3 9.3 5.9 65 3.0 S 11 17 6 9 1021.3 1021.2 0.0
26/03:00am 12.7 9.3 5.8 63 3.2 S 13 19 7 10 1021.3 1021.2 0.0
26/02:30am 13.2 9.4 5.9 61 3.4 S 15 20 8 11 1021.4 1021.3 0.0
26/02:00am 13.6 9.7 5.5 58 3.8 S 15 20 8 11 1021.4 1021.3 0.0
26/01:30am 14.2 10.0 5.6 56 4.1 S 17 24 9 13 1021.7 1021.6 0.0
26/01:00am 14.7 10.5 5.5 54 4.4 S 17 22 9 12 1021.7 1021.6 0.0
26/12:30am 15.2 11.0 5.7 53 4.5 S 17 26 9 14 1021.9 1021.8 0.0
26/12:00am 15.8 11.5 5.4 50 4.9 S 17 24 9 13 1021.9 1021.8 0.0
 
Date/Time
CDT
Temp
°C
App
Temp
°C
Dew
Point
Rel
Hum
%
Delta-T
°C
Wind Press
QNH
hPa
Press
MSL
hPa
Rain
since 9 am
mm
Dir
 
Spd
km/h
Gust
km/h
Spd
kts
Gust
kts
25/11:30pm 16.5 11.7 5.5 48 5.3 S 20 28 11 15 1021.8 1021.7 0.0
25/11:00pm 17.2 11.2 5.2 45 5.8 S 26 37 14 20 1021.8 1021.7 0.0
25/10:30pm 17.9 12.6 4.8 42 6.2 S 22 30 12 16 1021.6 1021.5 0.0
25/10:00pm 18.7 13.7 4.5 39 6.8 S 20 28 11 15 1021.5 1021.4 0.0
25/09:30pm 19.4 14.4 3.6 35 7.4 S 19 24 10 13 1021.3 1021.2 0.0
25/09:00pm 20.1 15.9 3.8 34 7.8 S 15 19 8 10 1020.9 1020.8 0.0
25/08:30pm 21.0 16.8 3.7 32 8.3 S 15 20 8 11 1020.5 1020.4 0.0
25/08:00pm 21.8 17.1 3.0 29 8.9 S 17 20 9 11 1020.2 1020.1 0.0
25/07:30pm 23.0 18.5 1.9 25 9.9 S 15 19 8 10 1019.9 1019.8 0.0
25/07:00pm 23.9 18.5 1.5 23 10.5 S 19 32 10 17 1019.6 1019.5 0.0
25/06:30pm 24.5 19.2 2.0 23 10.7 S 19 26 10 14 1019.2 1019.1 0.0
25/06:00pm 24.6 20.1 2.1 23 10.7 S 15 26 8 14 1019.1 1019.0 0.0
25/05:30pm 24.9 20.0 1.7 22 11.0 SSW 17 28 9 15 1019.0 1018.9 0.0
25/05:00pm 25.4 20.8 1.5 21 11.4 SSW 15 26 8 14 1019.2 1019.1 0.0
25/04:30pm 24.5 20.3 1.4 22 10.8 SSE 13 22 7 12 1019.4 1019.3 0.0
25/04:00pm 24.6 20.0 1.5 22 10.9 S 15 28 8 15 1019.6 1019.5 0.0
25/03:30pm 23.9 19.2 0.9 22 10.6 S 15 28 8 15 1020.0 1019.9 0.0
25/03:00pm 23.6 19.0 1.3 23 10.4 SSW 15 24 8 13 1020.3 1020.2 0.0
25/02:30pm 23.6 18.1 1.9 24 10.2 S 20 26 11 14 1020.5 1020.4 0.0
25/02:00pm 22.5 18.8 2.6 27 9.4 SSW 11 22 6 12 1020.8 1020.7 0.0
25/01:30pm 22.6 19.5 3.7 29 9.1 SSW 9 20 5 11 1021.2 1021.1 0.0
25/01:00pm 21.9 16.8 3.1 29 9.0 S 19 28 10 15 1021.6 1021.5 0.0
25/12:30pm 22.3 18.5 3.9 30 8.9 WSW 13 19 7 10 1021.9 1021.8 0.0
25/12:00pm 20.4 17.5 4.4 35 7.7 SSE 9 22 5 12 1022.3 1022.2 0.0
25/11:30am 19.9 15.7 4.0 35 7.6 SSE 15 24 8 13 1022.4 1022.3 0.0
25/11:00am 19.1 16.3 5.2 40 6.8 SW 9 15 5 8 1022.5 1022.4 0.0
25/10:30am 18.4 15.9 4.9 41 6.5 S 7 15 4 8 1022.7 1022.6 0.0
25/10:00am 17.5 13.6 5.4 45 5.8 S 15 24 8 13 1022.8 1022.7 0.0
25/09:30am 16.6 12.5 6.1 50 5.1 S 17 26 9 14 1022.9 1022.8 0.0
25/09:00am 16.4 12.9 7.1 54 4.6 S 15 22 8 12 1022.8 1022.7 0.0
25/08:30am 16.6 13.6 7.5 55 4.5 S 13 19 7 10 1022.7 1022.6 0.0
25/08:00am 15.4 12.7 7.2 58 4.1 WSW 11 17 6 9 1022.4 1022.3 0.0
25/07:30am 14.4 10.9 7.0 61 3.6 SW 15 20 8 11 1022.1 1022.0 0.0
25/07:00am 12.4 10.0 7.1 70 2.6 W 9 11 5 6 1021.8 1021.7 0.0
25/06:30am 9.8 7.6 6.2 78 1.7 W 7 11 4 6 1021.4 1021.3 0.0
25/06:00am 8.9 6.2 5.8 81 1.4 W 9 13 5 7 1021.1 1021.0 0.0
25/05:30am 9.1 6.4 5.8 80 1.5 W 9 13 5 7 1020.8 1020.7 0.0
25/05:00am 8.8 6.2 6.1 83 1.2 WNW 9 13 5 7 1020.4 1020.3 0.0
25/04:30am 8.5 6.1 5.3 80 1.4 W 7 11 4 6 1020.1 1020.0 0.0
25/04:00am 8.9 6.6 5.5 79 1.5 W 7 9 4 5 1019.9 1019.8 0.0
25/03:30am 8.9 6.2 5.5 79 1.5 W 9 9 5 5 1019.8 1019.7 0.0
25/03:00am 9.5 6.7 5.3 75 1.9 W 9 11 5 6 1019.8 1019.7 0.0
25/02:30am 9.9 7.2 5.5 74 2.0 W 9 11 5 6 1019.7 1019.6 0.0
25/02:00am 10.5 7.8 5.5 71 2.3 W 9 11 5 6 1019.8 1019.7 0.0
25/01:30am 11.2 8.8 5.3 67 2.7 W 7 9 4 5 1019.8 1019.7 0.0
25/01:00am 12.6 10.3 5.5 62 3.3 SW 7 7 4 4 1019.8 1019.7 0.0
25/12:30am 13.1 10.3 5.3 59 3.6 SSW 9 15 5 8 1019.7 1019.6 0.0
25/12:00am 14.0 10.4 5.1 55 4.1 S 13 19 7 10 1019.7 1019.6 0.0
 
Date/Time
CDT
Temp
°C
App
Temp
°C
Dew
Point
Rel
Hum
%
Delta-T
°C
Wind Press
QNH
hPa
Press
MSL
hPa
Rain
since 9 am
mm
Dir
 
Spd
km/h
Gust
km/h
Spd
kts
Gust
kts
24/11:30pm 14.6 9.8 4.9 52 4.5 S 19 26 10 14 1019.5 1019.4 0.0
24/11:00pm 15.1 10.1 4.8 50 4.8 SSW 20 30 11 16 1019.0 1018.9 0.0
24/10:30pm 15.7 10.3 4.7 48 5.2 SSW 22 35 12 19 1018.6 1018.5 0.0
24/10:00pm 16.3 10.9 4.4 45 5.6 SSW 22 33 12 18 1018.1 1018.0 0.0
24/09:30pm 16.7 11.0 5.0 46 5.6 SSW 24 37 13 20 1017.5 1017.4 0.0
24/09:00pm 17.4 10.2 5.0 44 5.9 SSW 32 44 17 24 1016.7 1016.6 0.0
24/08:30pm 18.0 11.5 4.6 41 6.4 SSW 28 43 15 23 1016.2 1016.1 0.0
24/08:00pm 18.9 12.0 4.7 39 6.8 S 30 44 16 24 1015.6 1015.5 0.0
24/07:30pm 20.1 12.7 5.0 37 7.4 S 33 50 18 27 1014.7 1014.7 0.0
24/07:05pm 21.6 14.9 5.5 35 8.0 SSW 30 48 16 26 1014.0 1013.9 0.0
24/07:00pm 21.5 14.5 5.8 36 7.9 SSW 32 48 17 26 1013.8 1013.7 0.0
24/06:33pm 22.3 14.8 6.5 36 8.1 SSW 35 57 19 31 1013.0 1012.9 0.0
24/06:30pm 22.7 15.2 6.5 35 8.3 SSW 35 48 19 26 1013.0 1012.9 0.0
24/06:00pm 23.6 16.8 7.7 36 8.4 SW 33 46 18 25 1012.4 1012.3 0.0
24/05:42pm 23.8 16.8 8.6 38 8.1 SW 35 54 19 29 1011.9 1011.8 0.0
24/05:35pm 23.4 15.7 8.7 39 7.9 SW 39 48 21 26 1011.7 1011.6 0.0
24/05:30pm 23.5 16.2 8.8 39 7.9 SSW 37 50 20 27 1011.7 1011.6 0.0
24/05:00pm 24.6 17.7 9.0 37 8.4 SSW 35 54 19 29 1011.1 1011.0 0.0
24/04:45pm 24.7 17.6 8.2 35 8.8 SSW 35 54 19 29 1011.1 1011.0 0.0
24/04:30pm 25.5 17.6 9.3 36 8.9 SSW 41 48 22 26 1010.6 1010.5 0.0
24/04:14pm 24.7 18.2 10.2 40 8.0 SW 35 56 19 30 1010.5 1010.4 0.0
24/04:00pm 25.5 18.9 10.1 38 8.5 S 35 46 19 25 1010.5 1010.4 0.0
24/03:30pm 27.8 21.2 8.6 30 10.5 SW 33 52 18 28 1010.0 1009.9 0.0
24/03:04pm 27.9 22.0 7.7 28 10.9 SW 28 46 15 25 1009.9 1009.8 0.0
24/03:00pm 28.4 22.5 7.6 27 11.2 SW 28 41 15 22 1010.0 1009.9 0.0
24/02:48pm 27.8 21.2 7.6 28 10.9 SW 32 50 17 27 1009.9 1009.8 0.0
24/02:30pm 28.0 21.8 7.8 28 10.9 SW 30 44 16 24 1010.0 1009.9 0.0
24/02:04pm 28.0 20.8 7.8 28 10.9 SW 35 54 19 29 1009.6 1009.5 0.0
24/02:00pm 27.7 21.1 8.6 30 10.4 SW 33 48 18 26 1009.7 1009.6 0.0
24/01:37pm 26.9 20.6 9.7 34 9.5 SW 33 52 18 28 1009.7 1009.6 0.0
24/01:30pm 27.3 21.0 9.6 33 9.8 SW 33 46 18 25 1009.8 1009.7 0.0
24/01:00pm 26.5 20.4 9.8 35 9.3 SW 32 46 17 25 1010.0 1009.9 0.0
24/12:43pm 27.2 21.9 11.2 36 9.1 SW 30 48 16 26 1009.8 1009.7 0.0
24/12:30pm 25.1 18.9 11.3 42 7.8 SW 35 50 19 27 1009.9 1009.8 0.0
24/12:09pm 24.6 19.1 11.9 45 7.2 SW 32 50 17 27 1009.9 1009.8 0.0
24/12:00pm 24.2 19.6 12.2 47 6.9 SW 28 44 15 24 1009.9 1009.8 0.0
24/11:30am 24.9 19.5 12.2 45 7.3 SW 32 46 17 25 1010.0 1009.9 0.0
24/11:00am 26.7 20.7 10.8 37 9.0 SW 33 46 18 25 1009.8 1009.7 0.0
24/10:30am 28.3 22.9 12.2 37 9.4 WSW 32 43 17 23 1009.2 1009.1 0.0
24/10:13am 28.5 23.2 13.2 39 9.1 WSW 33 52 18 28 1009.1 1009.0 0.0
24/10:11am 28.7 22.4 13.4 39 9.1 W 39 52 21 28 1009.0 1008.9 0.0
24/10:00am 30.7 26.4 14.3 36 10.0 NW 30 41 16 22 1009.1 1009.0 0.0
24/09:30am 29.2 24.6 14.6 41 8.9 NW 32 43 17 23 1009.4 1009.3 0.0
24/09:00am 28.2 24.1 14.8 44 8.1 NW 30 41 16 22 1009.5 1009.4 0.8
24/08:30am 27.1 24.7 15.5 49 7.1 WNW 22 30 12 16 1009.5 1009.4 0.8
24/08:00am 25.5 24.1 15.5 54 6.1 W 17 30 9 16 1009.3 1009.2 0.8
24/07:30am 22.9 23.0 15.5 63 4.4 WNW 9 13 5 7 1008.6 1008.5 0.8
24/07:00am 23.2 22.0 15.0 60 4.9 N 15 19 8 10 1007.6 1007.5 0.8
24/06:30am 23.0 21.3 14.8 60 4.9 N 17 20 9 11 1007.2 1007.1 0.8
24/06:00am 23.0 20.5 14.0 57 5.3 N 20 24 11 13 1007.0 1006.9 0.8
24/05:30am 23.0 21.0 13.8 56 5.4 N 17 22 9 12 1007.0 1006.9 0.8
24/05:00am 23.3 21.2 13.5 54 5.7 N 17 24 9 13 1007.0 1006.9 0.8
24/04:30am 21.7 21.5 14.6 64 4.2 N 9 17 5 9 1006.9 1006.8 0.8
24/04:00am 20.7 22.1 15.5 72 3.1 N 2 7 1 4 1007.3 1007.2 0.8
24/03:30am 21.7 20.5 15.1 66 3.9 NNE 15 19 8 10 1007.0 1006.9 0.8
24/03:00am 21.5 21.8 15.1 67 3.8 NNW 7 11 4 6 1007.9 1007.8 0.8
24/02:30am 21.2 21.1 16.0 72 3.1 NW 11 15 6 8 1008.1 1008.0 0.8
24/02:00am 21.3 20.8 15.8 71 3.3 NW 13 15 7 8 1008.4 1008.3 0.8
24/01:30am 20.3 20.7 16.3 78 2.4 NE 9 13 5 7 1008.2 1008.1 0.8
24/01:00am 20.6 23.7 18.7 89 1.2 CALM 0 0 0 0 1008.5 1008.4 0.6
24/12:30am 20.7 23.5 17.9 84 1.7 CALM 0 0 0 0 1008.9 1008.8 0.6
24/12:00am 21.3 22.4 15.6 70 3.4 NNE 4 7 2 4 1009.4 1009.3 0.6
 
Date/Time
CDT
Temp
°C
App
Temp
°C
Dew
Point
Rel
Hum
%
Delta-T
°C
Wind Press
QNH
hPa
Press
MSL
hPa
Rain
since 9 am
mm
Dir
 
Spd
km/h
Gust
km/h
Spd
kts
Gust
kts
23/11:30pm 20.8 21.7 16.0 74 2.9 ENE 6 11 3 6 1008.9 1008.8 0.6
23/11:00pm 20.6 21.1 14.9 70 3.4 E 6 7 3 4 1009.2 1009.1 0.6
23/10:30pm 20.4 19.3 14.3 68 3.6 SE 13 15 7 8 1008.4 1008.3 0.6
23/10:00pm 20.1 22.0 15.7 76 2.6 CALM 0 0 0 0 1009.1 1009.0 0.6
23/09:30pm 21.4 22.6 15.0 67 3.8 SSE 2 7 1 4 1008.9 1008.8 0.6
23/09:00pm 21.8 21.3 13.7 60 4.7 SE 9 9 5 5 1009.2 1009.1 0.6
23/08:30pm 22.8 22.7 13.3 55 5.5 NE 6 7 3 4 1009.0 1008.9 0.6
23/08:00pm 24.1 22.5 12.7 49 6.6 E 13 15 7 8 1008.5 1008.4 0.6
23/07:30pm 24.5 23.1 13.4 50 6.5 ENE 13 17 7 9 1009.2 1009.1 0.6
23/07:15pm 24.7 23.4 13.6 50 6.5 NNE 13 22 7 12 1009.7 1009.6 0.6
23/07:00pm 24.4 21.8 13.9 52 6.2 ENE 20 26 11 14 1007.7 1007.6 0.6
23/06:59pm 24.3 21.8 14.1 53 6.0 ENE 20 26 11 14 1007.8 1007.7 0.6
23/06:30pm 24.4 22.2 14.5 54 5.9 ENE 19 24 10 13 1009.8 1009.7 0.6
23/06:00pm 24.0 23.3 16.3 62 4.7 ENE 15 20 8 11 1010.9 1010.8 0.6
23/05:30pm 24.0 22.9 16.3 62 4.7 N 17 20 9 11 1012.3 1012.2 0.4
23/05:00pm 28.3 25.5 8.6 29 10.8 NNW 13 19 7 10 1012.4 1012.3 0.0
23/04:30pm 28.9 25.2 6.3 24 12.0 SSW 15 20 8 11 1010.9 1010.8 0.0
23/04:00pm 29.1 26.5 7.6 26 11.6 SE 11 15 6 8 1010.0 1009.9 0.0
23/03:30pm 29.1 26.2 8.2 27 11.4 E 13 19 7 10 1010.6 1010.5 0.0
23/03:00pm 29.4 26.2 8.5 27 11.5 ENE 15 20 8 11 1011.4 1011.3 0.0

Other Formats:

Comma delimited format used in spreadsheet applications
http://www.bom.gov.au/fwo/IDS60801/IDS60801.95687.axf

JavaScript Object Notation format (JSON) in row-major order
http://www.bom.gov.au/fwo/IDS60801/IDS60801.95687.json